• Join FlightAware (Why Join?)
  • Login
  • US Flag 
06:57PM EDT


 

Airport Tracker/Info


-or-


 

Live Flight TrackerFlight Track Log ✈ ELJ309 ✈ 05-May-2013 ✈ KCLE - KGSO

Flight Track Log - Related Links

Times and Time Zones

All times are in EDT time to prevent confusion due to time zone crossing. See the ELJ309 flight status page for this flight to view local times or setup timezone preferences in your user account.

Time Position Orientation Groundspeed Altitude Reporting Facility
EDT Latitude Longitude Course Direction KTS MPH feet Rate Location/Type
10:30PM 41.3714 -81.6317 289° West 93 107 3,000  Level Cleveland Center
10:32PM 41.2465 -81.5885 165° South  Level Estimated
10:39PM 40.6503 -81.3845 165° South  Level Estimated
10:40PM 40.5651 -81.3557 166° South  Level Estimated
10:41PM 40.4799 -81.3269 166° South  Level Estimated
10:42PM 40.3947 -81.2982 166° South  Level Estimated
10:43PM 40.3095 -81.2696 166° South  Level Estimated
10:44PM 40.2243 -81.2410 166° South  Level Estimated
10:45PM 40.1390 -81.2125 166° South  Level Estimated
10:46PM 40.0538 -81.1841 166° South  Level Estimated
10:47PM 39.9685 -81.1558 166° South  Level Estimated
10:48PM 39.8833 -81.1275 166° South  Level Estimated
10:49PM 39.7980 -81.0994 166° South  Level Estimated
10:50PM 39.7127 -81.0712 166° South  Level Estimated
10:51PM 39.6275 -81.0432 166° South  Level Estimated
10:52PM 39.5422 -81.0152 166° South  Level Estimated
10:53PM 39.4569 -80.9873 166° South  Level Estimated
10:54PM 39.3716 -80.9594 166° South  Level Estimated
10:55PM 39.2863 -80.9316 166° South  Level Estimated
10:56PM 39.2010 -80.9039 166° South  Level Estimated
10:57PM 39.1157 -80.8763 166° South  Level Estimated
10:58PM 39.0303 -80.8487 166° South  Level Estimated
10:59PM 38.9450 -80.8212 166° South  Level Estimated
11:00PM 38.8597 -80.7937 166° South  Level Estimated
11:01PM 38.7743 -80.7664 166° South  Level Estimated
11:02PM 38.6890 -80.7391 166° South  Level Estimated
11:03PM 38.6036 -80.7118 166° South  Level Estimated
11:04PM 38.5183 -80.6846 166° South  Level Estimated
11:05PM 38.4329 -80.6575 166° South  Level Estimated
11:06PM 38.3475 -80.6304 166° South  Level Estimated
11:07PM 38.2621 -80.6035 166° South  Level Estimated
11:08PM 38.1768 -80.5765 166° South  Level Estimated
11:09PM 38.0914 -80.5497 166° South  Level Estimated
11:10PM 38.0060 -80.5229 166° South  Level Estimated
11:11PM 37.9206 -80.4961 166° South  Level Estimated
11:12PM 37.8352 -80.4694 166° South  Level Estimated
11:13PM 37.7497 -80.4428 166° South  Level Estimated
11:14PM 37.6643 -80.4163 166° South  Level Estimated
11:15PM 37.5789 -80.3898 166° South  Level Estimated
11:16PM 37.4935 -80.3633 166° South  Level Estimated
11:17PM 37.4080 -80.3370 166° South  Level Estimated
11:18PM 37.3226 -80.3107 166° South  Level Estimated
11:19PM 37.2371 -80.2844 166° South  Level Estimated
11:20PM 37.1517 -80.2582 166° South  Level Estimated
11:21PM 37.0662 -80.2321 166° South  Level Estimated
11:22PM 36.9807 -80.2060 166° South  Level Estimated
11:23PM 36.8953 -80.1800 166° South  Level Estimated
11:24PM 36.8098 -80.1540 166° South  Level Estimated
11:25PM 36.7243 -80.1281 166° South  Level Estimated
11:26PM 36.6388 -80.1023 166° South  Level Estimated
11:27PM 36.5533 -80.0765 166° South  Level Estimated
11:28PM 36.4678 -80.0508 166° South  Level Estimated
11:29PM 36.3823 -80.0251 166° South  Level Estimated
11:30PM 36.2968 -79.9995 166° South  Level Estimated
11:31PM 36.2113 -79.9739 166° South  Level Estimated
11:32PM 36.1257 -79.9484 166° South  Level Estimated
11:33PM 36.1013 -79.9411 166° South  Level Estimated
11:34PM 36.1013 -79.9411 214° Southwest  Level Estimated
11:35PM 36.1013 -79.9411 214° Southwest  Level Estimated
11:36PM 36.1013 -79.9411 214° Southwest  Level Estimated
11:37PM 36.1013 -79.9411 214° Southwest  Level Estimated
11:38PM 36.1013 -79.9411 214° Southwest  Level Estimated
11:39PM 36.1013 -79.9411 214° Southwest  Level Estimated
11:40PM 36.1013 -79.9411 214° Southwest  Level Estimated
11:41PM 36.1013 -79.9411 214° Southwest  Level Estimated
11:42PM 36.1013 -79.9411 214° Southwest  Level Estimated
11:43PM 36.1013 -79.9411 214° Southwest  Level Estimated
11:44PM 36.1013 -79.9411 214° Southwest  Level Estimated
11:45PM 36.1013 -79.9411 214° Southwest  Level Estimated
11:46PM 36.1013 -79.9411 214° Southwest  Level Estimated
11:47PM 36.1013 -79.9411 214° Southwest  Level Estimated
11:48PM 36.1013 -79.9411 214° Southwest  Level Estimated
11:49PM 36.1013 -79.9411 214° Southwest  Level Estimated
11:50PM 36.1013 -79.9411 214° Southwest  Level Estimated
11:51PM 36.1013 -79.9411 214° Southwest  Level Estimated
11:52PM 36.1013 -79.9411 214° Southwest  Level Estimated
11:53PM 36.1013 -79.9411 214° Southwest  Level Estimated
11:54PM 36.1013 -79.9411 214° Southwest  Level Estimated
11:55PM 36.1013 -79.9411 214° Southwest  Level Estimated
11:56PM 36.1013 -79.9411 214° Southwest  Level Estimated